createdAt,value
2019-03-09T00:00:13.426Z,913.33
2019-03-09T00:01:13.423Z,913.37
2019-03-09T00:02:13.415Z,913.37
2019-03-09T00:03:13.316Z,913.40
2019-03-09T00:04:13.323Z,913.43
2019-03-09T00:05:13.284Z,913.46
2019-03-09T00:06:13.613Z,913.48
2019-03-09T00:07:13.212Z,913.47
2019-03-09T00:08:13.181Z,913.47
2019-03-09T00:09:13.135Z,913.46
2019-03-09T00:10:13.117Z,913.47
2019-03-09T00:11:13.088Z,913.47
2019-03-09T00:12:13.054Z,913.47
2019-03-09T00:13:13.018Z,913.45
2019-03-09T00:14:13.064Z,913.48
2019-03-09T00:15:12.956Z,913.49
2019-03-09T00:16:12.956Z,913.51
2019-03-09T00:17:12.903Z,913.51
2019-03-09T00:18:13.213Z,913.55
2019-03-09T00:19:12.838Z,913.60
2019-03-09T00:20:12.778Z,913.58
2019-03-09T00:21:12.756Z,913.62
2019-03-09T00:22:12.723Z,913.63
2019-03-09T00:23:12.696Z,913.64
2019-03-09T00:24:12.817Z,913.67
2019-03-09T00:25:12.671Z,913.71
2019-03-09T00:26:12.590Z,913.70
2019-03-09T00:27:12.588Z,913.74
2019-03-09T00:28:12.549Z,913.71
2019-03-09T00:29:12.555Z,913.73
2019-03-09T00:30:12.501Z,913.74
2019-03-09T00:31:12.461Z,913.75
2019-03-09T00:32:12.438Z,913.74
2019-03-09T00:33:12.396Z,913.76
2019-03-09T00:34:12.356Z,913.76
2019-03-09T00:35:12.316Z,913.75
2019-03-09T00:36:12.355Z,913.78
2019-03-09T00:37:12.238Z,913.78
2019-03-09T00:38:12.224Z,913.75
2019-03-09T00:39:12.185Z,913.78
2019-03-09T00:40:12.164Z,913.84
2019-03-09T00:41:12.136Z,913.84
2019-03-09T00:42:12.101Z,913.84
2019-03-09T00:43:12.082Z,913.89
2019-03-09T00:44:12.056Z,913.85
2019-03-09T00:45:12.012Z,913.85
2019-03-09T00:46:11.971Z,913.87
2019-03-09T00:47:11.944Z,913.85
2019-03-09T00:48:11.910Z,913.89
2019-03-09T00:49:11.880Z,913.92
2019-03-09T00:50:12.063Z,913.96
2019-03-09T00:51:11.836Z,913.93
2019-03-09T00:52:11.935Z,913.96
2019-03-09T00:53:11.775Z,913.97
2019-03-09T00:54:11.734Z,913.99
2019-03-09T00:55:11.682Z,913.99
2019-03-09T00:57:11.634Z,914.01
2019-03-09T00:58:11.587Z,914.00
2019-03-09T00:59:11.562Z,914.01
2019-03-09T01:00:11.519Z,914.01
2019-03-09T01:01:11.491Z,914.05
2019-03-09T01:02:11.776Z,914.05
2019-03-09T01:03:11.438Z,914.05
2019-03-09T01:04:11.400Z,914.05
2019-03-09T01:05:11.360Z,914.07
2019-03-09T01:06:11.324Z,914.10
2019-03-09T01:07:11.312Z,914.13
2019-03-09T01:08:11.263Z,914.09
2019-03-09T01:09:11.278Z,914.14
2019-03-09T01:10:11.213Z,914.19
2019-03-09T01:11:11.156Z,914.20
2019-03-09T01:12:11.458Z,914.24
2019-03-09T01:13:11.124Z,914.21
2019-03-09T01:14:11.096Z,914.19
2019-03-09T01:15:11.041Z,914.16
2019-03-09T01:16:11.027Z,914.13
2019-03-09T01:17:10.980Z,914.11
2019-03-09T01:18:11.094Z,914.08
2019-03-09T01:19:10.960Z,914.05
2019-03-09T01:20:10.902Z,914.05
2019-03-09T01:21:10.859Z,914.06
2019-03-09T01:22:10.818Z,914.03
2019-03-09T01:23:10.838Z,914.07
2019-03-09T01:24:10.961Z,914.07
2019-03-09T01:25:10.747Z,914.09
2019-03-09T01:26:10.687Z,914.08
2019-03-09T01:27:10.746Z,914.10
2019-03-09T01:28:10.626Z,914.08
2019-03-09T01:29:10.588Z,914.08
2019-03-09T01:30:10.563Z,914.07
2019-03-09T01:31:10.531Z,914.02
2019-03-09T01:32:10.486Z,914.02
2019-03-09T01:33:10.448Z,914.05
2019-03-09T01:35:10.401Z,914.03
2019-03-09T01:36:10.365Z,914.08
2019-03-09T01:37:10.336Z,914.07
2019-03-09T01:38:10.300Z,914.10
2019-03-09T01:39:10.283Z,914.15
2019-03-09T01:40:10.229Z,914.15
2019-03-09T01:41:10.213Z,914.17
2019-03-09T01:42:10.181Z,914.16
2019-03-09T01:43:10.224Z,914.17
2019-03-09T01:44:10.111Z,914.21
2019-03-09T01:45:10.086Z,914.16
2019-03-09T01:46:10.057Z,914.15
2019-03-09T01:47:10.002Z,914.12
2019-03-09T01:48:09.978Z,914.09
2019-03-09T01:49:09.963Z,914.07
2019-03-09T01:50:09.915Z,914.06
2019-03-09T01:51:09.889Z,914.01
2019-03-09T01:52:09.831Z,913.99
2019-03-09T01:53:09.834Z,914.02
2019-03-09T01:54:09.788Z,913.97
2019-03-09T01:55:09.762Z,913.98
2019-03-09T01:56:09.703Z,914.01
2019-03-09T01:57:09.682Z,913.99
2019-03-09T01:58:09.643Z,913.99
2019-03-09T01:59:09.624Z,913.98
2019-03-09T02:00:09.587Z,913.96
2019-03-09T02:01:09.557Z,913.96
2019-03-09T02:02:09.535Z,913.93
2019-03-09T02:03:09.485Z,913.92
2019-03-09T02:04:09.472Z,913.93
2019-03-09T02:05:09.436Z,913.91
2019-03-09T02:06:09.409Z,913.91
2019-03-09T02:07:09.406Z,913.84
2019-03-09T02:08:09.345Z,913.82
2019-03-09T02:09:09.312Z,913.81
2019-03-09T02:10:09.316Z,913.79
2019-03-09T02:12:09.222Z,913.68
2019-03-09T02:13:09.183Z,913.73
2019-03-09T02:14:09.168Z,913.68
2019-03-09T02:15:09.094Z,913.71
2019-03-09T02:16:09.178Z,913.70
2019-03-09T02:17:09.039Z,913.70
2019-03-09T02:18:09.011Z,913.71
2019-03-09T02:19:08.979Z,913.68
2019-03-09T02:20:08.949Z,913.73
2019-03-09T02:21:08.915Z,913.73
2019-03-09T02:22:08.896Z,913.71
2019-03-09T02:23:08.856Z,913.68
2019-03-09T02:24:08.825Z,913.65
2019-03-09T02:25:08.794Z,913.61
2019-03-09T02:26:08.758Z,913.59
2019-03-09T02:27:08.723Z,913.61
2019-03-09T02:28:08.688Z,913.65
2019-03-09T02:29:08.671Z,913.60
2019-03-09T02:30:08.638Z,913.60
2019-03-09T02:31:08.579Z,913.64
2019-03-09T02:32:08.560Z,913.63
2019-03-09T02:33:08.531Z,913.63
2019-03-09T02:34:08.492Z,913.63
2019-03-09T02:35:08.467Z,913.63
2019-03-09T02:36:08.450Z,913.60
2019-03-09T02:37:08.468Z,913.60
2019-03-09T02:38:08.374Z,913.57
2019-03-09T02:39:08.345Z,913.54
2019-03-09T02:40:08.283Z,913.54
2019-03-09T02:41:08.327Z,913.53
2019-03-09T02:42:08.218Z,913.50
2019-03-09T02:43:08.210Z,913.46
2019-03-09T02:44:08.209Z,913.45
2019-03-09T02:45:08.139Z,913.47
2019-03-09T02:46:08.139Z,913.47
2019-03-09T02:47:08.130Z,913.48
2019-03-09T02:48:08.024Z,913.46
2019-03-09T02:49:08.011Z,913.46
2019-03-09T02:50:08.058Z,913.45
2019-03-09T02:51:07.958Z,913.41
2019-03-09T02:52:07.903Z,913.40
2019-03-09T02:53:07.874Z,913.37
2019-03-09T02:54:07.829Z,913.31
2019-03-09T02:55:07.833Z,913.28
2019-03-09T02:56:07.796Z,913.28
2019-03-09T02:57:07.755Z,913.26
2019-03-09T02:58:07.729Z,913.30
2019-03-09T02:59:07.707Z,913.27
2019-03-09T03:00:07.666Z,913.23
2019-03-09T03:01:07.604Z,913.28
2019-03-09T03:02:07.573Z,913.28
2019-03-09T03:03:07.545Z,913.28
2019-03-09T03:04:07.523Z,913.26
2019-03-09T03:05:07.497Z,913.27
2019-03-09T03:06:07.460Z,913.26
2019-03-09T03:07:07.449Z,913.28
2019-03-09T03:08:07.402Z,913.25
2019-03-09T03:09:07.354Z,913.24
2019-03-09T03:10:07.322Z,913.34
2019-03-09T03:11:07.285Z,913.31
2019-03-09T03:12:07.274Z,913.34
2019-03-09T03:13:07.231Z,913.32
2019-03-09T03:14:07.199Z,913.35
2019-03-09T03:15:07.290Z,913.40
2019-03-09T03:16:07.146Z,913.39
2019-03-09T03:17:07.100Z,913.43
2019-03-09T03:18:07.076Z,913.43
2019-03-09T03:19:07.018Z,913.46
2019-03-09T03:20:07.356Z,913.44
2019-03-09T03:21:06.963Z,913.43
2019-03-09T03:22:06.944Z,913.46
2019-03-09T03:23:06.909Z,913.46
2019-03-09T03:24:06.853Z,913.42
2019-03-09T03:25:06.844Z,913.43
2019-03-09T03:26:06.944Z,913.39
2019-03-09T03:27:06.775Z,913.44
2019-03-09T03:28:06.735Z,913.43
2019-03-09T03:29:06.697Z,913.45
2019-03-09T03:30:06.661Z,913.46
2019-03-09T03:31:06.671Z,913.45
2019-03-09T03:32:06.630Z,913.45
2019-03-09T03:33:06.585Z,913.45
2019-03-09T03:34:06.558Z,913.47
2019-03-09T03:35:06.524Z,913.48
2019-03-09T03:36:06.485Z,913.48
2019-03-09T03:37:06.649Z,913.50
2019-03-09T03:38:06.404Z,913.51
2019-03-09T03:39:06.380Z,913.48
2019-03-09T03:40:06.345Z,913.48
2019-03-09T03:41:06.313Z,913.49
2019-03-09T03:42:06.287Z,913.46
2019-03-09T03:43:06.251Z,913.46
2019-03-09T03:44:06.218Z,913.46
2019-03-09T03:45:06.198Z,913.48
2019-03-09T03:46:06.243Z,913.45
2019-03-09T03:47:06.130Z,913.42
2019-03-09T03:48:06.089Z,913.44
2019-03-09T03:49:06.067Z,913.45
2019-03-09T03:50:06.053Z,913.43
2019-03-09T03:51:05.987Z,913.41
2019-03-09T03:52:05.962Z,913.40
2019-03-09T03:53:05.929Z,913.38
2019-03-09T03:54:05.899Z,913.38
2019-03-09T03:55:05.862Z,913.37
2019-03-09T03:56:05.830Z,913.36
2019-03-09T03:57:05.808Z,913.34
2019-03-09T03:58:05.743Z,913.33
2019-03-09T03:59:05.743Z,913.36
2019-03-09T04:00:05.697Z,913.36
2019-03-09T04:01:05.785Z,913.35
2019-03-09T04:02:05.635Z,913.33
2019-03-09T04:03:05.620Z,913.31
2019-03-09T04:04:05.559Z,913.30
2019-03-09T04:05:05.742Z,913.30
2019-03-09T04:06:05.486Z,913.26
2019-03-09T04:07:05.483Z,913.24
2019-03-09T04:08:05.447Z,913.26
2019-03-09T04:09:05.418Z,913.21
2019-03-09T04:10:05.359Z,913.20
2019-03-09T04:11:06.193Z,913.23
2019-03-09T04:12:05.289Z,913.21
2019-03-09T04:13:05.277Z,913.22
2019-03-09T04:14:05.239Z,913.19
2019-03-09T04:15:05.226Z,913.14
2019-03-09T04:16:05.249Z,913.14
2019-03-09T04:17:05.142Z,913.09
2019-03-09T04:18:05.110Z,913.06
2019-03-09T04:19:05.071Z,913.04
2019-03-09T04:20:05.068Z,913.07
2019-03-09T04:21:05.176Z,913.05
2019-03-09T04:22:04.988Z,913.08
2019-03-09T04:23:04.950Z,913.06
2019-03-09T04:24:04.892Z,913.07
2019-03-09T04:25:04.896Z,913.11
2019-03-09T04:26:04.834Z,913.10
2019-03-09T04:27:04.805Z,913.13
2019-03-09T04:28:04.782Z,913.09
2019-03-09T04:29:04.748Z,913.12
2019-03-09T04:30:04.719Z,913.13
2019-03-09T04:31:04.683Z,913.14
2019-03-09T04:32:04.653Z,913.09
2019-03-09T04:33:04.603Z,913.09
2019-03-09T04:34:04.567Z,913.10
2019-03-09T04:35:04.561Z,913.09
2019-03-09T04:36:04.500Z,913.08
2019-03-09T04:37:04.477Z,913.08
2019-03-09T04:38:04.444Z,913.08
2019-03-09T04:39:04.429Z,913.05
2019-03-09T04:40:04.393Z,913.07
2019-03-09T04:41:04.345Z,913.03
2019-03-09T04:42:04.307Z,913.02
2019-03-09T04:43:04.275Z,913.02
2019-03-09T04:44:04.256Z,913.00
2019-03-09T04:45:04.231Z,913.04
2019-03-09T04:46:04.180Z,913.05
2019-03-09T04:47:04.169Z,913.03
2019-03-09T04:48:04.155Z,913.04
2019-03-09T04:49:04.458Z,913.04
2019-03-09T04:50:04.062Z,913.03
2019-03-09T04:51:04.007Z,913.04
2019-03-09T04:52:04.020Z,913.03
2019-03-09T04:53:03.941Z,913.06
2019-03-09T04:54:03.943Z,913.07
2019-03-09T04:55:04.181Z,913.09
2019-03-09T04:56:03.853Z,913.08
2019-03-09T04:57:03.826Z,913.07
2019-03-09T04:58:03.800Z,913.10
2019-03-09T04:59:03.749Z,913.09
2019-03-09T05:00:03.723Z,913.08
2019-03-09T05:01:03.684Z,913.08
2019-03-09T05:02:03.664Z,913.09
2019-03-09T05:03:03.634Z,913.11
2019-03-09T05:04:03.576Z,913.08
2019-03-09T05:05:03.564Z,913.11
2019-03-09T05:06:03.529Z,913.06
2019-03-09T05:07:03.582Z,913.06
2019-03-09T05:08:03.462Z,913.03
2019-03-09T05:09:03.475Z,913.04
2019-03-09T05:10:03.400Z,913.02
2019-03-09T05:11:03.379Z,913.01
2019-03-09T05:12:03.328Z,913.01
2019-03-09T05:13:03.279Z,913.01
2019-03-09T05:14:03.258Z,913.05
2019-03-09T05:15:03.237Z,913.01
2019-03-09T05:16:03.195Z,913.05
2019-03-09T05:17:03.166Z,913.05
2019-03-09T05:18:03.153Z,913.01
2019-03-09T05:19:03.086Z,913.00
2019-03-09T05:20:03.104Z,913.02
2019-03-09T05:21:03.045Z,913.04
2019-03-09T05:22:03.029Z,913.05
2019-03-09T05:23:02.956Z,913.05
2019-03-09T05:24:02.938Z,913.07
2019-03-09T05:25:02.917Z,913.03
2019-03-09T05:26:02.882Z,913.06
2019-03-09T05:27:02.824Z,913.05
2019-03-09T05:28:02.799Z,913.09
2019-03-09T05:29:02.770Z,913.07
2019-03-09T05:30:02.750Z,913.13
2019-03-09T05:31:02.711Z,913.09
2019-03-09T05:32:04.502Z,913.10
2019-03-09T05:33:02.649Z,913.10
2019-03-09T05:34:02.606Z,913.10
2019-03-09T05:35:02.677Z,913.11
2019-03-09T05:36:02.534Z,913.11
2019-03-09T05:37:02.521Z,913.12
2019-03-09T05:38:02.683Z,913.13
2019-03-09T05:39:02.444Z,913.15
2019-03-09T05:40:02.391Z,913.18
2019-03-09T05:41:02.362Z,913.15
2019-03-09T05:42:02.327Z,913.15
2019-03-09T05:43:02.317Z,913.18
2019-03-09T05:44:02.296Z,913.12
2019-03-09T05:45:02.248Z,913.12
2019-03-09T05:46:02.220Z,913.08
2019-03-09T05:47:02.180Z,913.08
2019-03-09T05:48:02.159Z,913.05
2019-03-09T05:49:02.113Z,913.05
2019-03-09T05:50:04.408Z,913.01
2019-03-09T05:51:02.058Z,913.03
2019-03-09T05:52:02.007Z,913.05
2019-03-09T05:53:01.978Z,913.04
2019-03-09T05:54:02.012Z,913.04
2019-03-09T05:55:01.907Z,913.07
2019-03-09T05:56:01.883Z,913.02
2019-03-09T05:57:01.849Z,913.08
2019-03-09T05:58:01.819Z,913.04
2019-03-09T05:59:01.863Z,913.05
2019-03-09T06:00:01.733Z,913.06
2019-03-09T06:01:01.711Z,913.10
2019-03-09T06:02:01.691Z,913.07
2019-03-09T06:03:01.659Z,913.09
2019-03-09T06:04:01.599Z,913.04
2019-03-09T06:05:01.566Z,912.99
2019-03-09T06:06:01.557Z,913.02
2019-03-09T06:07:01.521Z,912.99
2019-03-09T06:08:01.498Z,912.98
2019-03-09T06:09:01.461Z,912.96
2019-03-09T06:10:01.427Z,912.96
2019-03-09T06:11:01.391Z,912.95
2019-03-09T06:12:01.354Z,912.93
2019-03-09T06:13:01.331Z,912.93
2019-03-09T06:14:01.290Z,912.93
2019-03-09T06:15:01.258Z,912.95
2019-03-09T06:16:01.228Z,912.95
2019-03-09T06:17:01.174Z,912.95
2019-03-09T06:18:01.159Z,912.94
2019-03-09T06:19:01.127Z,912.94
2019-03-09T06:20:01.077Z,912.94
2019-03-09T06:21:01.063Z,912.93
2019-03-09T06:22:01.015Z,912.92
2019-03-09T06:23:01.035Z,912.92
2019-03-09T06:24:00.939Z,912.95
2019-03-09T06:25:00.974Z,912.95
2019-03-09T06:26:00.890Z,912.95
2019-03-09T06:27:00.877Z,912.97
2019-03-09T06:28:00.828Z,912.95
2019-03-09T06:29:00.793Z,912.99
2019-03-09T06:30:00.769Z,913.00
2019-03-09T06:31:00.723Z,912.98
2019-03-09T06:32:00.699Z,913.00
2019-03-09T06:33:00.661Z,912.99
2019-03-09T06:34:00.626Z,913.00
2019-03-09T06:35:00.602Z,913.00
2019-03-09T06:36:00.656Z,912.99
2019-03-09T06:37:00.543Z,913.02
2019-03-09T06:38:00.483Z,913.02
2019-03-09T06:39:00.455Z,913.09
2019-03-09T06:40:00.448Z,913.06
2019-03-09T06:41:03.132Z,913.06
2019-03-09T06:42:00.408Z,913.08
2019-03-09T06:43:00.322Z,913.05
2019-03-09T06:44:00.305Z,913.09
2019-03-09T06:45:00.368Z,913.11
2019-03-09T06:46:00.242Z,913.07
2019-03-09T06:47:00.191Z,913.08
2019-03-09T06:48:00.313Z,913.09
2019-03-09T06:49:00.127Z,913.11
2019-03-09T06:50:00.117Z,913.11
2019-03-09T06:51:00.074Z,913.14
2019-03-09T06:52:00.080Z,913.13
2019-03-09T06:53:00.002Z,913.17
2019-03-09T06:53:59.971Z,913.20
2019-03-09T06:54:59.938Z,913.22
2019-03-09T06:55:59.898Z,913.24
2019-03-09T06:56:59.871Z,913.24
2019-03-09T06:57:59.834Z,913.23
2019-03-09T06:58:59.800Z,913.27
2019-03-09T06:59:59.777Z,913.25
2019-03-09T07:00:59.734Z,913.27
2019-03-09T07:01:59.698Z,913.21
2019-03-09T07:02:59.701Z,913.21
2019-03-09T07:03:59.634Z,913.18
2019-03-09T07:04:59.593Z,913.20
2019-03-09T07:05:59.565Z,913.22
2019-03-09T07:06:59.566Z,913.21
2019-03-09T07:07:59.531Z,913.22
2019-03-09T07:08:59.470Z,913.20
2019-03-09T07:09:59.421Z,913.23
2019-03-09T07:10:59.400Z,913.26
2019-03-09T07:11:59.368Z,913.27
2019-03-09T07:12:59.331Z,913.28
2019-03-09T07:13:59.305Z,913.29
2019-03-09T07:14:59.270Z,913.33
2019-03-09T07:15:59.225Z,913.33
2019-03-09T07:16:59.197Z,913.29
2019-03-09T07:17:59.184Z,913.29
2019-03-09T07:18:59.141Z,913.24
2019-03-09T07:19:59.097Z,913.27
2019-03-09T07:20:59.227Z,913.26
2019-03-09T07:21:59.021Z,913.27
2019-03-09T07:22:59.004Z,913.31
2019-03-09T07:23:58.953Z,913.31
2019-03-09T07:24:58.945Z,913.34
2019-03-09T07:25:58.885Z,913.37
2019-03-09T07:26:58.867Z,913.37
2019-03-09T07:27:58.837Z,913.38
2019-03-09T07:28:58.813Z,913.38
2019-03-09T07:29:58.776Z,913.36
2019-03-09T07:30:58.721Z,913.35
2019-03-09T07:31:58.690Z,913.30
2019-03-09T07:32:58.672Z,913.28
2019-03-09T07:33:58.649Z,913.30
2019-03-09T07:34:58.605Z,913.30
2019-03-09T07:35:58.563Z,913.31
2019-03-09T07:36:58.541Z,913.32
2019-03-09T07:37:58.508Z,913.32
2019-03-09T07:38:58.456Z,913.29
2019-03-09T07:39:58.462Z,913.30
2019-03-09T07:40:58.402Z,913.30
2019-03-09T07:41:58.363Z,913.29
2019-03-09T07:42:58.525Z,913.29
2019-03-09T07:43:58.313Z,913.28
2019-03-09T07:44:58.273Z,913.27
2019-03-09T07:45:58.249Z,913.25
2019-03-09T07:46:58.200Z,913.24
2019-03-09T07:47:58.170Z,913.26
2019-03-09T07:48:58.216Z,913.23
2019-03-09T07:49:58.107Z,913.23
2019-03-09T07:50:58.081Z,913.22
2019-03-09T07:51:58.042Z,913.21
2019-03-09T07:52:58.007Z,913.21
2019-03-09T07:53:57.975Z,913.22
2019-03-09T07:54:57.947Z,913.20
2019-03-09T07:55:57.910Z,913.18
2019-03-09T07:56:57.900Z,913.19
2019-03-09T07:57:57.835Z,913.18
2019-03-09T07:58:57.810Z,913.23
2019-03-09T07:59:57.790Z,913.24
2019-03-09T08:00:57.743Z,913.24
2019-03-09T08:01:57.725Z,913.25
2019-03-09T08:02:57.678Z,913.26
2019-03-09T08:03:57.650Z,913.25
2019-03-09T08:04:57.611Z,913.30
2019-03-09T08:05:57.608Z,913.27
2019-03-09T08:06:57.544Z,913.25
2019-03-09T08:07:57.521Z,913.24
2019-03-09T08:08:57.465Z,913.23
2019-03-09T08:09:57.451Z,913.19
2019-03-09T08:10:57.391Z,913.18
2019-03-09T08:11:57.385Z,913.17
2019-03-09T08:12:57.381Z,913.20
2019-03-09T08:13:57.334Z,913.18
2019-03-09T08:14:57.263Z,913.19
2019-03-09T08:15:57.255Z,913.20
2019-03-09T08:16:57.226Z,913.22
2019-03-09T08:17:57.184Z,913.19
2019-03-09T08:18:57.140Z,913.22
2019-03-09T08:19:57.262Z,913.24
2019-03-09T08:20:57.086Z,913.21
2019-03-09T08:21:57.078Z,913.19
2019-03-09T08:22:57.015Z,913.17
2019-03-09T08:23:56.988Z,913.22
2019-03-09T08:24:56.943Z,913.19
2019-03-09T08:25:56.932Z,913.19
2019-03-09T08:26:56.875Z,913.22
2019-03-09T08:27:56.847Z,913.25
2019-03-09T08:28:56.853Z,913.22
2019-03-09T08:29:56.780Z,913.23
2019-03-09T08:30:56.766Z,913.26
2019-03-09T08:31:56.706Z,913.25
2019-03-09T08:32:56.684Z,913.29
2019-03-09T08:33:56.659Z,913.29
2019-03-09T08:34:56.623Z,913.29
2019-03-09T08:35:56.739Z,913.27
2019-03-09T08:36:56.550Z,913.26
2019-03-09T08:37:56.597Z,913.25
2019-03-09T08:38:56.464Z,913.24
2019-03-09T08:39:56.439Z,913.24
2019-03-09T08:40:56.426Z,913.26
2019-03-09T08:41:56.379Z,913.25
2019-03-09T08:42:56.370Z,913.25
2019-03-09T08:43:56.346Z,913.29
2019-03-09T08:44:56.285Z,913.26
2019-03-09T08:45:56.271Z,913.27
2019-03-09T08:46:56.429Z,913.33
2019-03-09T08:47:56.207Z,913.33
2019-03-09T08:48:56.151Z,913.35
2019-03-09T08:49:56.124Z,913.30
2019-03-09T08:50:56.092Z,913.33
2019-03-09T08:51:56.092Z,913.33
2019-03-09T08:52:56.176Z,913.31
2019-03-09T08:53:55.991Z,913.31
2019-03-09T08:54:55.990Z,913.31
2019-03-09T08:55:55.943Z,913.30
2019-03-09T08:56:55.878Z,913.25
2019-03-09T08:57:55.873Z,913.27
2019-03-09T08:58:55.861Z,913.25
2019-03-09T08:59:55.771Z,913.20
2019-03-09T09:00:55.737Z,913.22
2019-03-09T09:01:55.754Z,913.22
2019-03-09T09:02:55.688Z,913.20
2019-03-09T09:03:55.645Z,913.20
2019-03-09T09:04:55.613Z,913.18
2019-03-09T09:05:55.577Z,913.16
2019-03-09T09:06:55.539Z,913.21
2019-03-09T09:07:55.514Z,913.18
2019-03-09T09:08:55.626Z,913.20
2019-03-09T09:09:55.435Z,913.19
2019-03-09T09:10:55.405Z,913.20
2019-03-09T09:11:55.402Z,913.22
2019-03-09T09:12:55.354Z,913.22
2019-03-09T09:13:55.299Z,913.22
2019-03-09T09:14:55.276Z,913.24
2019-03-09T09:15:55.241Z,913.28
2019-03-09T09:16:55.222Z,913.31
2019-03-09T09:17:55.175Z,913.33
2019-03-09T09:18:55.156Z,913.37
2019-03-09T09:19:55.105Z,913.31
2019-03-09T09:20:55.076Z,913.29
2019-03-09T09:21:55.034Z,913.28
2019-03-09T09:22:55.005Z,913.26
2019-03-09T09:23:54.984Z,913.21
2019-03-09T09:24:54.921Z,913.22
2019-03-09T09:25:54.913Z,913.20
2019-03-09T09:26:54.878Z,913.16
2019-03-09T09:27:54.846Z,913.17
2019-03-09T09:28:54.797Z,913.20
2019-03-09T09:29:54.778Z,913.22
2019-03-09T09:30:54.746Z,913.19
2019-03-09T09:31:54.704Z,913.22
2019-03-09T09:32:54.677Z,913.22
2019-03-09T09:33:54.636Z,913.24
2019-03-09T09:34:54.605Z,913.24
2019-03-09T09:35:54.578Z,913.25
2019-03-09T09:36:54.544Z,913.24
2019-03-09T09:37:54.506Z,913.24
2019-03-09T09:38:54.460Z,913.24
2019-03-09T09:39:54.580Z,913.29
2019-03-09T09:40:54.417Z,913.29
2019-03-09T09:41:54.376Z,913.29
2019-03-09T09:42:54.335Z,913.27
2019-03-09T09:43:54.283Z,913.27
2019-03-09T09:44:54.285Z,913.27
2019-03-09T09:45:54.233Z,913.29
2019-03-09T09:46:54.206Z,913.27
2019-03-09T09:47:54.172Z,913.26
2019-03-09T09:48:54.147Z,913.30
2019-03-09T09:49:54.104Z,913.31
2019-03-09T09:50:54.065Z,913.35
2019-03-09T09:51:54.041Z,913.40
2019-03-09T09:52:54.017Z,913.44
2019-03-09T09:53:54.005Z,913.46
2019-03-09T09:54:53.937Z,913.45
2019-03-09T09:55:53.933Z,913.43
2019-03-09T09:56:53.869Z,913.43
2019-03-09T09:57:53.841Z,913.42
2019-03-09T09:58:53.831Z,913.42
2019-03-09T09:59:53.747Z,913.44
2019-03-09T10:00:53.736Z,913.41
2019-03-09T10:01:53.744Z,913.41
2019-03-09T10:02:53.675Z,913.42
2019-03-09T10:03:53.634Z,913.44
2019-03-09T10:04:53.608Z,913.50
2019-03-09T10:05:53.561Z,913.50
2019-03-09T10:06:53.514Z,913.50
2019-03-09T10:07:53.487Z,913.54
2019-03-09T10:08:53.470Z,913.59
2019-03-09T10:09:53.428Z,913.59
2019-03-09T10:10:53.385Z,913.62
2019-03-09T10:11:53.510Z,913.62
2019-03-09T10:12:55.557Z,913.65
2019-03-09T10:13:53.295Z,913.68
2019-03-09T10:14:53.278Z,913.72
2019-03-09T10:15:53.227Z,913.71
2019-03-09T10:16:53.201Z,913.70
2019-03-09T10:17:53.175Z,913.72
2019-03-09T10:18:53.135Z,913.68
2019-03-09T10:19:53.111Z,913.71
2019-03-09T10:20:53.066Z,913.71
2019-03-09T10:21:53.034Z,913.69
2019-03-09T10:23:02.951Z,913.76
2019-03-09T10:23:52.959Z,913.72
2019-03-09T10:24:52.948Z,913.71
2019-03-09T10:25:52.909Z,913.72
2019-03-09T10:26:52.873Z,913.71
2019-03-09T10:27:52.833Z,913.73
2019-03-09T10:28:52.819Z,913.77
2019-03-09T10:29:52.761Z,913.75
2019-03-09T10:30:52.728Z,913.76
2019-03-09T10:31:52.711Z,913.77
2019-03-09T10:32:52.714Z,913.73
2019-03-09T10:33:52.642Z,913.74
2019-03-09T10:34:52.603Z,913.76
2019-03-09T10:35:52.581Z,913.82
2019-03-09T10:36:52.537Z,913.80
2019-03-09T10:37:52.495Z,913.77
2019-03-09T10:38:52.454Z,913.73
2019-03-09T10:39:52.432Z,913.73
2019-03-09T10:40:52.409Z,913.80
2019-03-09T10:41:52.378Z,913.81
2019-03-09T10:42:52.342Z,913.80
2019-03-09T10:43:52.343Z,913.80
2019-03-09T10:44:52.402Z,913.79
2019-03-09T10:45:52.243Z,913.81
2019-03-09T10:46:52.229Z,913.85
2019-03-09T10:47:52.164Z,913.87
2019-03-09T10:48:52.143Z,913.84
2019-03-09T10:49:52.116Z,913.82
2019-03-09T10:50:52.078Z,913.82
2019-03-09T10:51:52.029Z,913.84
2019-03-09T10:52:52.024Z,913.82
2019-03-09T10:53:52.012Z,913.82
2019-03-09T10:54:51.953Z,913.82
2019-03-09T10:55:51.902Z,913.85
2019-03-09T10:56:51.908Z,913.91
2019-03-09T10:57:51.857Z,913.94
2019-03-09T10:58:51.826Z,913.96
2019-03-09T10:59:51.787Z,913.97
2019-03-09T11:00:51.737Z,913.94
2019-03-09T11:01:51.721Z,913.95
2019-03-09T11:02:51.680Z,913.96
2019-03-09T11:03:51.654Z,914.04
2019-03-09T11:04:51.624Z,914.03
2019-03-09T11:05:51.590Z,914.07
2019-03-09T11:06:51.566Z,914.09
2019-03-09T11:07:51.532Z,914.11
2019-03-09T11:08:51.485Z,914.13
2019-03-09T11:09:51.503Z,914.13
2019-03-09T11:10:51.425Z,914.09
2019-03-09T11:11:51.379Z,914.16
2019-03-09T11:12:51.366Z,914.19
2019-03-09T11:13:52.257Z,914.17
2019-03-09T11:14:51.316Z,914.18
2019-03-09T11:15:51.673Z,914.13
2019-03-09T11:16:51.280Z,914.09
2019-03-09T11:17:51.196Z,914.12
2019-03-09T11:18:51.187Z,914.10
2019-03-09T11:19:51.132Z,914.06
2019-03-09T11:20:51.092Z,914.12
2019-03-09T11:21:51.090Z,914.17
2019-03-09T11:22:51.030Z,914.15
2019-03-09T11:23:51.098Z,914.15
2019-03-09T11:24:50.989Z,914.18
2019-03-09T11:25:50.978Z,914.17
2019-03-09T11:26:50.925Z,914.16
2019-03-09T11:27:50.865Z,914.20
2019-03-09T11:28:50.867Z,914.16
2019-03-09T11:29:50.810Z,914.21
2019-03-09T11:30:50.786Z,914.19
2019-03-09T11:31:50.761Z,914.21
2019-03-09T11:32:50.721Z,914.20
2019-03-09T11:33:50.674Z,914.19
2019-03-09T11:34:50.661Z,914.23
2019-03-09T11:35:50.628Z,914.22
2019-03-09T11:36:50.585Z,914.21
2019-03-09T11:37:50.858Z,914.24
2019-03-09T11:38:50.527Z,914.26
2019-03-09T11:39:50.518Z,914.20
2019-03-09T11:40:57.592Z,914.25
2019-03-09T11:41:50.539Z,914.24
2019-03-09T11:42:50.411Z,914.27
2019-03-09T11:44:50.328Z,914.24
2019-03-09T11:45:50.308Z,914.26
2019-03-09T11:46:50.267Z,914.22
2019-03-09T11:47:50.294Z,914.24
2019-03-09T11:48:50.204Z,914.25
2019-03-09T11:49:50.182Z,914.26
2019-03-09T11:50:50.146Z,914.28
2019-03-09T11:51:50.155Z,914.30
2019-03-09T11:52:50.087Z,914.32
2019-03-09T11:53:50.158Z,914.27
2019-03-09T11:54:50.011Z,914.29
2019-03-09T11:55:50.002Z,914.29
2019-03-09T11:56:49.951Z,914.33
2019-03-09T11:57:49.908Z,914.30
2019-03-09T11:58:49.915Z,914.29
2019-03-09T11:59:49.868Z,914.34
2019-03-09T12:00:49.828Z,914.33
2019-03-09T12:01:49.809Z,914.28
2019-03-09T12:02:49.774Z,914.31
2019-03-09T12:03:49.729Z,914.27
2019-03-09T12:04:49.713Z,914.27
2019-03-09T12:05:49.676Z,914.30
2019-03-09T12:06:49.630Z,914.26
2019-03-09T12:07:49.622Z,914.22
2019-03-09T12:08:49.655Z,914.25
2019-03-09T12:09:49.544Z,914.21
2019-03-09T12:10:49.531Z,914.26
2019-03-09T12:11:50.806Z,914.22
2019-03-09T12:12:49.460Z,914.20
2019-03-09T12:13:49.511Z,914.23
2019-03-09T12:14:49.386Z,914.21
2019-03-09T12:15:49.432Z,914.21
2019-03-09T12:16:49.347Z,914.22
2019-03-09T12:17:50.720Z,914.18
2019-03-09T12:18:49.284Z,914.17
2019-03-09T12:19:49.584Z,914.14
2019-03-09T12:20:49.184Z,914.14
2019-03-09T12:21:49.159Z,914.11
2019-03-09T12:22:49.160Z,914.11
2019-03-09T12:23:49.103Z,914.10
2019-03-09T12:24:49.078Z,914.10
2019-03-09T12:25:49.185Z,914.09
2019-03-09T12:26:49.014Z,914.09
2019-03-09T12:27:48.999Z,914.06
2019-03-09T12:28:48.941Z,914.07
2019-03-09T12:29:48.899Z,914.10
2019-03-09T12:30:48.886Z,914.09
2019-03-09T12:31:48.856Z,914.06